sensor_id;sensor_type;location;lat;lon;timestamp;P1;P2;P0
68713;PMS7003;55690;51.566;19.198;2023-03-01T00:03:24;35;25;16
68713;PMS7003;55690;51.566;19.198;2023-03-01T00:07:30;32;26;19
68713;PMS7003;55690;51.566;19.198;2023-03-01T00:11:36;38;19;13
68713;PMS7003;55690;51.566;19.198;2023-03-01T00:15:43;35;22;16
68713;PMS7003;55690;51.566;19.198;2023-03-01T00:19:49;15;14;12
68713;PMS7003;55690;51.566;19.198;2023-03-01T00:23:55;28;16;9
68713;PMS7003;55690;51.566;19.198;2023-03-01T00:28:01;19;13;8
68713;PMS7003;55690;51.566;19.198;2023-03-01T00:32:08;25;16;7
68713;PMS7003;55690;51.566;19.198;2023-03-01T00:36:14;22;15;12
68713;PMS7003;55690;51.566;19.198;2023-03-01T00:40:20;26;24;16
68713;PMS7003;55690;51.566;19.198;2023-03-01T00:44:26;17;13;8
68713;PMS7003;55690;51.566;19.198;2023-03-01T00:48:33;19;11;7
68713;PMS7003;55690;51.566;19.198;2023-03-01T00:52:39;27;12;8
68713;PMS7003;55690;51.566;19.198;2023-03-01T00:56:45;28;22;13
68713;PMS7003;55690;51.566;19.198;2023-03-01T01:00:51;23;14;9
68713;PMS7003;55690;51.566;19.198;2023-03-01T01:04:57;28;18;12
68713;PMS7003;55690;51.566;19.198;2023-03-01T01:09:04;26;18;10
68713;PMS7003;55690;51.566;19.198;2023-03-01T01:13:10;25;18;12
68713;PMS7003;55690;51.566;19.198;2023-03-01T01:17:16;12;10;7
68713;PMS7003;55690;51.566;19.198;2023-03-01T01:21:22;29;19;12
68713;PMS7003;55690;51.566;19.198;2023-03-01T01:25:28;15;11;8
68713;PMS7003;55690;51.566;19.198;2023-03-01T01:29:35;20;12;9
68713;PMS7003;55690;51.566;19.198;2023-03-01T01:33:41;36;22;13
68713;PMS7003;55690;51.566;19.198;2023-03-01T01:37:47;44;25;15
68713;PMS7003;55690;51.566;19.198;2023-03-01T01:41:53;24;19;11
68713;PMS7003;55690;51.566;19.198;2023-03-01T01:46:01;35;20;13
68713;PMS7003;55690;51.566;19.198;2023-03-01T01:50:08;34;24;16
68713;PMS7003;55690;51.566;19.198;2023-03-01T01:54:25;13;10;8
68713;PMS7003;55690;51.566;19.198;2023-03-01T01:58:31;45;27;16
68713;PMS7003;55690;51.566;19.198;2023-03-01T02:02:33;39;28;17
68713;PMS7003;55690;51.566;19.198;2023-03-01T02:06:39;35;22;15
68713;PMS7003;55690;51.566;19.198;2023-03-01T02:10:48;18;16;12
68713;PMS7003;55690;51.566;19.198;2023-03-01T02:14:51;28;23;14
68713;PMS7003;55690;51.566;19.198;2023-03-01T02:18:52;34;23;14
68713;PMS7003;55690;51.566;19.198;2023-03-01T02:22:56;23;18;7
68713;PMS7003;55690;51.566;19.198;2023-03-01T02:27:02;22;18;11
68713;PMS7003;55690;51.566;19.198;2023-03-01T02:31:09;39;26;16
68713;PMS7003;55690;51.566;19.198;2023-03-01T02:35:23;38;24;15
68713;PMS7003;55690;51.566;19.198;2023-03-01T02:39:26;39;21;13
68713;PMS7003;55690;51.566;19.198;2023-03-01T02:43:31;17;14;12
68713;PMS7003;55690;51.566;19.198;2023-03-01T02:47:35;14;11;10
68713;PMS7003;55690;51.566;19.198;2023-03-01T02:51:45;28;16;9
68713;PMS7003;55690;51.566;19.198;2023-03-01T02:55:54;23;17;10
68713;PMS7003;55690;51.566;19.198;2023-03-01T02:59:56;16;13;9
68713;PMS7003;55690;51.566;19.198;2023-03-01T03:04:00;15;13;8
68713;PMS7003;55690;51.566;19.198;2023-03-01T03:08:04;21;15;11
68713;PMS7003;55690;51.566;19.198;2023-03-01T03:12:10;10;9;6
68713;PMS7003;55690;51.566;19.198;2023-03-01T03:16:16;15;15;12
68713;PMS7003;55690;51.566;19.198;2023-03-01T03:20:24;15;11;7
68713;PMS7003;55690;51.566;19.198;2023-03-01T03:24:29;34;14;10
68713;PMS7003;55690;51.566;19.198;2023-03-01T03:28:38;19;7;6
68713;PMS7003;55690;51.566;19.198;2023-03-01T03:32:42;13;10;6
68713;PMS7003;55690;51.566;19.198;2023-03-01T03:36:53;15;14;9
68713;PMS7003;55690;51.566;19.198;2023-03-01T03:41:01;21;12;9
68713;PMS7003;55690;51.566;19.198;2023-03-01T03:45:05;28;13;11
68713;PMS7003;55690;51.566;19.198;2023-03-01T03:49:07;16;15;9
68713;PMS7003;55690;51.566;19.198;2023-03-01T03:53:12;20;11;7
68713;PMS7003;55690;51.566;19.198;2023-03-01T03:57:18;29;20;14
68713;PMS7003;55690;51.566;19.198;2023-03-01T04:01:25;22;18;11
68713;PMS7003;55690;51.566;19.198;2023-03-01T04:05:31;21;13;9
68713;PMS7003;55690;51.566;19.198;2023-03-01T04:09:37;14;11;8
68713;PMS7003;55690;51.566;19.198;2023-03-01T04:13:43;26;14;11
68713;PMS7003;55690;51.566;19.198;2023-03-01T04:17:50;17;16;12
68713;PMS7003;55690;51.566;19.198;2023-03-01T04:21:56;28;18;12
68713;PMS7003;55690;51.566;19.198;2023-03-01T04:26:03;25;19;11
68713;PMS7003;55690;51.566;19.198;2023-03-01T04:30:09;24;16;11
68713;PMS7003;55690;51.566;19.198;2023-03-01T04:34:15;33;8;5
68713;PMS7003;55690;51.566;19.198;2023-03-01T04:38:21;29;19;12
68713;PMS7003;55690;51.566;19.198;2023-03-01T04:42:27;37;17;10
68713;PMS7003;55690;51.566;19.198;2023-03-01T04:46:33;35;26;16
68713;PMS7003;55690;51.566;19.198;2023-03-01T04:50:39;33;22;13
68713;PMS7003;55690;51.566;19.198;2023-03-01T04:54:46;18;15;9
68713;PMS7003;55690;51.566;19.198;2023-03-01T04:58:55;29;16;12
68713;PMS7003;55690;51.566;19.198;2023-03-01T05:03:01;29;19;12
68713;PMS7003;55690;51.566;19.198;2023-03-01T05:07:04;20;12;10
68713;PMS7003;55690;51.566;19.198;2023-03-01T05:11:11;26;18;10
68713;PMS7003;55690;51.566;19.198;2023-03-01T05:15:17;23;19;13
68713;PMS7003;55690;51.566;19.198;2023-03-01T05:19:23;31;18;12
68713;PMS7003;55690;51.566;19.198;2023-03-01T05:23:30;15;11;6
68713;PMS7003;55690;51.566;19.198;2023-03-01T05:27:35;33;17;12
68713;PMS7003;55690;51.566;19.198;2023-03-01T05:31:42;20;19;10
68713;PMS7003;55690;51.566;19.198;2023-03-01T05:35:48;17;13;8
68713;PMS7003;55690;51.566;19.198;2023-03-01T05:39:54;22;14;10
68713;PMS7003;55690;51.566;19.198;2023-03-01T05:44:01;29;20;13
68713;PMS7003;55690;51.566;19.198;2023-03-01T05:48:07;30;18;10
68713;PMS7003;55690;51.566;19.198;2023-03-01T05:52:12;37;19;12
68713;PMS7003;55690;51.566;19.198;2023-03-01T05:56:19;15;14;10
68713;PMS7003;55690;51.566;19.198;2023-03-01T06:00:26;26;20;12
68713;PMS7003;55690;51.566;19.198;2023-03-01T06:04:31;24;20;11
68713;PMS7003;55690;51.566;19.198;2023-03-01T06:08:37;23;13;9
68713;PMS7003;55690;51.566;19.198;2023-03-01T06:12:44;14;12;9
68713;PMS7003;55690;51.566;19.198;2023-03-01T06:16:50;19;14;9
68713;PMS7003;55690;51.566;19.198;2023-03-01T06:20:56;21;19;9
68713;PMS7003;55690;51.566;19.198;2023-03-01T06:25:02;25;18;12
68713;PMS7003;55690;51.566;19.198;2023-03-01T06:29:08;30;19;9
68713;PMS7003;55690;51.566;19.198;2023-03-01T06:33:14;36;21;15
68713;PMS7003;55690;51.566;19.198;2023-03-01T06:37:21;24;21;15
68713;PMS7003;55690;51.566;19.198;2023-03-01T06:41:27;22;19;14
68713;PMS7003;55690;51.566;19.198;2023-03-01T06:45:33;37;22;13
68713;PMS7003;55690;51.566;19.198;2023-03-01T06:49:39;34;24;16
68713;PMS7003;55690;51.566;19.198;2023-03-01T06:53:46;37;28;13
68713;PMS7003;55690;51.566;19.198;2023-03-01T06:57:55;38;27;18
68713;PMS7003;55690;51.566;19.198;2023-03-01T07:02:00;21;15;6
68713;PMS7003;55690;51.566;19.198;2023-03-01T07:06:04;52;29;19
68713;PMS7003;55690;51.566;19.198;2023-03-01T07:10:10;39;20;10
68713;PMS7003;55690;51.566;19.198;2023-03-01T07:14:16;32;26;16
68713;PMS7003;55690;51.566;19.198;2023-03-01T07:18:23;42;30;19
68713;PMS7003;55690;51.566;19.198;2023-03-01T07:22:29;56;31;19
68713;PMS7003;55690;51.566;19.198;2023-03-01T07:26:35;42;31;20
68713;PMS7003;55690;51.566;19.198;2023-03-01T07:30:41;48;34;21
68713;PMS7003;55690;51.566;19.198;2023-03-01T07:34:47;43;32;22
68713;PMS7003;55690;51.566;19.198;2023-03-01T07:38:54;15;15;11
68713;PMS7003;55690;51.566;19.198;2023-03-01T07:43:00;44;29;20
68713;PMS7003;55690;51.566;19.198;2023-03-01T07:47:06;39;24;15
68713;PMS7003;55690;51.566;19.198;2023-03-01T07:51:12;48;34;21
68713;PMS7003;55690;51.566;19.198;2023-03-01T07:58:08;36;28;15
68713;PMS7003;55690;51.566;19.198;2023-03-01T08:02:14;45;31;21
68713;PMS7003;55690;51.566;19.198;2023-03-01T08:06:20;36;32;22
68713;PMS7003;55690;51.566;19.198;2023-03-01T08:10:26;36;25;19
68713;PMS7003;55690;51.566;19.198;2023-03-01T08:14:32;37;27;18
68713;PMS7003;55690;51.566;19.198;2023-03-01T08:18:38;44;31;17
68713;PMS7003;55690;51.566;19.198;2023-03-01T08:22:45;47;23;13
68713;PMS7003;55690;51.566;19.198;2023-03-01T08:26:51;30;19;12
68713;PMS7003;55690;51.566;19.198;2023-03-01T08:30:57;40;29;18
68713;PMS7003;55690;51.566;19.198;2023-03-01T08:35:03;36;25;18
68713;PMS7003;55690;51.566;19.198;2023-03-01T08:39:10;30;23;17
68713;PMS7003;55690;51.566;19.198;2023-03-01T08:43:16;30;19;12
68713;PMS7003;55690;51.566;19.198;2023-03-01T08:47:22;40;24;14
68713;PMS7003;55690;51.566;19.198;2023-03-01T08:51:28;29;21;16
68713;PMS7003;55690;51.566;19.198;2023-03-01T08:55:34;40;18;14
68713;PMS7003;55690;51.566;19.198;2023-03-01T08:59:40;40;26;18
68713;PMS7003;55690;51.566;19.198;2023-03-01T09:03:46;35;19;11
68713;PMS7003;55690;51.566;19.198;2023-03-01T09:07:53;41;27;20
68713;PMS7003;55690;51.566;19.198;2023-03-01T09:11:59;22;21;14
68713;PMS7003;55690;51.566;19.198;2023-03-01T09:16:06;37;21;11
68713;PMS7003;55690;51.566;19.198;2023-03-01T09:20:11;31;24;15
68713;PMS7003;55690;51.566;19.198;2023-03-01T09:24:18;31;30;20
68713;PMS7003;55690;51.566;19.198;2023-03-01T09:28:24;33;22;12
68713;PMS7003;55690;51.566;19.198;2023-03-01T09:32:30;20;18;13
68713;PMS7003;55690;51.566;19.198;2023-03-01T09:36:36;29;20;14
68713;PMS7003;55690;51.566;19.198;2023-03-01T09:40:43;22;19;14
68713;PMS7003;55690;51.566;19.198;2023-03-01T09:44:54;15;12;9
68713;PMS7003;55690;51.566;19.198;2023-03-01T09:49:02;28;14;9
68713;PMS7003;55690;51.566;19.198;2023-03-01T09:53:13;33;21;13
68713;PMS7003;55690;51.566;19.198;2023-03-01T10:01:34;29;17;11
68713;PMS7003;55690;51.566;19.198;2023-03-01T10:05:47;15;9;6
68713;PMS7003;55690;51.566;19.198;2023-03-01T10:09:53;14;13;9
68713;PMS7003;55690;51.566;19.198;2023-03-01T10:14:00;14;14;8
68713;PMS7003;55690;51.566;19.198;2023-03-01T10:18:09;13;9;6
68713;PMS7003;55690;51.566;19.198;2023-03-01T10:22:20;18;12;8
68713;PMS7003;55690;51.566;19.198;2023-03-01T10:30:40;12;11;7
68713;PMS7003;55690;51.566;19.198;2023-03-01T10:34:44;14;12;8
68713;PMS7003;55690;51.566;19.198;2023-03-01T10:38:51;17;13;8
68713;PMS7003;55690;51.566;19.198;2023-03-01T10:42:57;18;13;10
68713;PMS7003;55690;51.566;19.198;2023-03-01T10:47:00;15;13;8
68713;PMS7003;55690;51.566;19.198;2023-03-01T10:51:06;20;20;12
68713;PMS7003;55690;51.566;19.198;2023-03-01T11:03:33;17;16;13
68713;PMS7003;55690;51.566;19.198;2023-03-01T11:11:53;22;9;7
68713;PMS7003;55690;51.566;19.198;2023-03-01T11:16:03;17;9;6
68713;PMS7003;55690;51.566;19.198;2023-03-01T11:20:20;13;9;6
68713;PMS7003;55690;51.566;19.198;2023-03-01T11:24:20;15;12;6
68713;PMS7003;55690;51.566;19.198;2023-03-01T11:28:29;11;7;5
68713;PMS7003;55690;51.566;19.198;2023-03-01T11:36:46;7;7;5
68713;PMS7003;55690;51.566;19.198;2023-03-01T11:45:12;9;7;5
68713;PMS7003;55690;51.566;19.198;2023-03-01T11:49:18;9;8;5
68713;PMS7003;55690;51.566;19.198;2023-03-01T12:10:28;12;9;7
68713;PMS7003;55690;51.566;19.198;2023-03-01T12:31:34;14;7;6
68713;PMS7003;55690;51.566;19.198;2023-03-01T12:48:31;14;9;7
68713;PMS7003;55690;51.566;19.198;2023-03-01T12:52:57;15;10;7
68713;PMS7003;55690;51.566;19.198;2023-03-01T12:56:53;13;11;8
68713;PMS7003;55690;51.566;19.198;2023-03-01T13:09:36;16;9;7
68713;PMS7003;55690;51.566;19.198;2023-03-01T13:13:44;15;12;7
68713;PMS7003;55690;51.566;19.198;2023-03-01T13:21:58;14;11;6
68713;PMS7003;55690;51.566;19.198;2023-03-01T13:26:09;11;9;8
68713;PMS7003;55690;51.566;19.198;2023-03-01T13:42:54;13;12;9
68713;PMS7003;55690;51.566;19.198;2023-03-01T13:46:57;8;7;6
68713;PMS7003;55690;51.566;19.198;2023-03-01T13:51:07;11;11;6
68713;PMS7003;55690;51.566;19.198;2023-03-01T13:55:19;15;11;7
68713;PMS7003;55690;51.566;19.198;2023-03-01T13:59:26;13;9;7
68713;PMS7003;55690;51.566;19.198;2023-03-01T14:03:31;15;10;8
68713;PMS7003;55690;51.566;19.198;2023-03-01T14:07:35;30;13;10
68713;PMS7003;55690;51.566;19.198;2023-03-01T14:20:17;27;9;7
68713;PMS7003;55690;51.566;19.198;2023-03-01T14:24:20;11;8;4
68713;PMS7003;55690;51.566;19.198;2023-03-01T14:32:39;6;5;4
68713;PMS7003;55690;51.566;19.198;2023-03-01T14:36:41;7;2;1
68713;PMS7003;55690;51.566;19.198;2023-03-01T14:40:42;13;7;5
68713;PMS7003;55690;51.566;19.198;2023-03-01T14:44:45;8;6;5
68713;PMS7003;55690;51.566;19.198;2023-03-01T14:48:49;9;6;4
68713;PMS7003;55690;51.566;19.198;2023-03-01T14:52:58;17;12;7
68713;PMS7003;55690;51.566;19.198;2023-03-01T14:57:04;8;5;3
68713;PMS7003;55690;51.566;19.198;2023-03-01T15:01:06;14;11;7
68713;PMS7003;55690;51.566;19.198;2023-03-01T15:05:09;13;7;6
68713;PMS7003;55690;51.566;19.198;2023-03-01T15:09:14;14;9;5
68713;PMS7003;55690;51.566;19.198;2023-03-01T15:13:24;11;11;7
68713;PMS7003;55690;51.566;19.198;2023-03-01T15:17:31;9;7;5
68713;PMS7003;55690;51.566;19.198;2023-03-01T15:21:36;15;12;8
68713;PMS7003;55690;51.566;19.198;2023-03-01T15:25:43;23;12;8
68713;PMS7003;55690;51.566;19.198;2023-03-01T15:46:34;8;6;4
68713;PMS7003;55690;51.566;19.198;2023-03-01T15:50:39;21;12;8
68713;PMS7003;55690;51.566;19.198;2023-03-01T15:54:44;17;16;12
68713;PMS7003;55690;51.566;19.198;2023-03-01T15:58:46;22;14;9
68713;PMS7003;55690;51.566;19.198;2023-03-01T16:02:48;14;11;9
68713;PMS7003;55690;51.566;19.198;2023-03-01T16:06:50;11;7;5
68713;PMS7003;55690;51.566;19.198;2023-03-01T16:10:56;9;5;4
68713;PMS7003;55690;51.566;19.198;2023-03-01T16:14:58;14;11;7
68713;PMS7003;55690;51.566;19.198;2023-03-01T16:18:59;17;9;8
68713;PMS7003;55690;51.566;19.198;2023-03-01T16:23:01;13;12;10
68713;PMS7003;55690;51.566;19.198;2023-03-01T16:27:05;6;6;5
68713;PMS7003;55690;51.566;19.198;2023-03-01T16:31:07;20;9;6
68713;PMS7003;55690;51.566;19.198;2023-03-01T16:35:10;20;9;7
68713;PMS7003;55690;51.566;19.198;2023-03-01T16:39:13;7;6;5
68713;PMS7003;55690;51.566;19.198;2023-03-01T16:43:14;19;10;9
68713;PMS7003;55690;51.566;19.198;2023-03-01T16:47:16;9;9;5
68713;PMS7003;55690;51.566;19.198;2023-03-01T16:51:18;14;7;4
68713;PMS7003;55690;51.566;19.198;2023-03-01T16:55:21;13;10;8
68713;PMS7003;55690;51.566;19.198;2023-03-01T16:59:22;17;7;2
68713;PMS7003;55690;51.566;19.198;2023-03-01T17:03:24;23;13;11
68713;PMS7003;55690;51.566;19.198;2023-03-01T17:07:30;15;12;9
68713;PMS7003;55690;51.566;19.198;2023-03-01T17:11:36;21;16;11
68713;PMS7003;55690;51.566;19.198;2023-03-01T17:15:38;13;9;8
68713;PMS7003;55690;51.566;19.198;2023-03-01T17:19:41;21;18;14
68713;PMS7003;55690;51.566;19.198;2023-03-01T17:23:44;18;16;11
68713;PMS7003;55690;51.566;19.198;2023-03-01T17:27:47;18;11;8
68713;PMS7003;55690;51.566;19.198;2023-03-01T17:31:48;13;6;3
68713;PMS7003;55690;51.566;19.198;2023-03-01T17:35:49;12;11;7
68713;PMS7003;55690;51.566;19.198;2023-03-01T17:39:51;15;4;3
68713;PMS7003;55690;51.566;19.198;2023-03-01T17:43:53;10;6;5
68713;PMS7003;55690;51.566;19.198;2023-03-01T17:47:54;14;13;9
68713;PMS7003;55690;51.566;19.198;2023-03-01T17:51:55;13;11;7
68713;PMS7003;55690;51.566;19.198;2023-03-01T17:55:58;12;11;6
68713;PMS7003;55690;51.566;19.198;2023-03-01T18:00:02;16;10;5
68713;PMS7003;55690;51.566;19.198;2023-03-01T18:04:04;15;14;11
68713;PMS7003;55690;51.566;19.198;2023-03-01T18:08:06;18;12;10
68713;PMS7003;55690;51.566;19.198;2023-03-01T18:12:07;12;10;8
68713;PMS7003;55690;51.566;19.198;2023-03-01T18:16:11;16;14;8
68713;PMS7003;55690;51.566;19.198;2023-03-01T18:20:14;14;6;4
68713;PMS7003;55690;51.566;19.198;2023-03-01T18:24:18;24;15;11
68713;PMS7003;55690;51.566;19.198;2023-03-01T18:28:20;14;11;8
68713;PMS7003;55690;51.566;19.198;2023-03-01T18:32:21;19;11;7
68713;PMS7003;55690;51.566;19.198;2023-03-01T18:36:24;16;16;11
68713;PMS7003;55690;51.566;19.198;2023-03-01T18:40:30;16;11;9
68713;PMS7003;55690;51.566;19.198;2023-03-01T18:44:32;22;15;12
68713;PMS7003;55690;51.566;19.198;2023-03-01T18:48:33;6;0;0
68713;PMS7003;55690;51.566;19.198;2023-03-01T18:52:36;22;16;9
68713;PMS7003;55690;51.566;19.198;2023-03-01T18:56:38;26;18;12
68713;PMS7003;55690;51.566;19.198;2023-03-01T19:00:39;17;16;9
68713;PMS7003;55690;51.566;19.198;2023-03-01T19:04:41;21;16;12
68713;PMS7003;55690;51.566;19.198;2023-03-01T19:08:43;18;13;11
68713;PMS7003;55690;51.566;19.198;2023-03-01T19:12:44;29;22;11
68713;PMS7003;55690;51.566;19.198;2023-03-01T19:16:46;23;13;10
68713;PMS7003;55690;51.566;19.198;2023-03-01T19:20:47;21;18;10
68713;PMS7003;55690;51.566;19.198;2023-03-01T19:24:49;17;16;13
68713;PMS7003;55690;51.566;19.198;2023-03-01T19:28:51;22;15;10
68713;PMS7003;55690;51.566;19.198;2023-03-01T19:32:53;20;13;10
68713;PMS7003;55690;51.566;19.198;2023-03-01T19:36:54;19;13;11
68713;PMS7003;55690;51.566;19.198;2023-03-01T19:40:56;15;12;9
68713;PMS7003;55690;51.566;19.198;2023-03-01T19:44:57;16;13;8
68713;PMS7003;55690;51.566;19.198;2023-03-01T19:49:00;23;19;12
68713;PMS7003;55690;51.566;19.198;2023-03-01T19:53:03;33;23;13
68713;PMS7003;55690;51.566;19.198;2023-03-01T19:57:04;33;9;6
68713;PMS7003;55690;51.566;19.198;2023-03-01T20:05:19;22;18;14
68713;PMS7003;55690;51.566;19.198;2023-03-01T20:09:22;32;22;14
68713;PMS7003;55690;51.566;19.198;2023-03-01T20:13:28;22;16;12
68713;PMS7003;55690;51.566;19.198;2023-03-01T20:17:34;24;17;13
68713;PMS7003;55690;51.566;19.198;2023-03-01T20:21:40;19;13;8
68713;PMS7003;55690;51.566;19.198;2023-03-01T20:25:47;18;18;12
68713;PMS7003;55690;51.566;19.198;2023-03-01T20:29:53;29;19;13
68713;PMS7003;55690;51.566;19.198;2023-03-01T20:33:59;12;12;8
68713;PMS7003;55690;51.566;19.198;2023-03-01T20:38:05;25;15;12
68713;PMS7003;55690;51.566;19.198;2023-03-01T20:42:11;24;15;12
68713;PMS7003;55690;51.566;19.198;2023-03-01T20:46:17;25;20;11
68713;PMS7003;55690;51.566;19.198;2023-03-01T20:50:24;16;11;10
68713;PMS7003;55690;51.566;19.198;2023-03-01T20:54:30;17;12;8
68713;PMS7003;55690;51.566;19.198;2023-03-01T20:58:36;18;14;10
68713;PMS7003;55690;51.566;19.198;2023-03-01T21:02:42;31;24;18
68713;PMS7003;55690;51.566;19.198;2023-03-01T21:06:49;20;17;10
68713;PMS7003;55690;51.566;19.198;2023-03-01T21:10:55;30;20;14
68713;PMS7003;55690;51.566;19.198;2023-03-01T21:15:01;20;16;12
68713;PMS7003;55690;51.566;19.198;2023-03-01T21:19:07;17;12;8
68713;PMS7003;55690;51.566;19.198;2023-03-01T21:23:13;17;15;10
68713;PMS7003;55690;51.566;19.198;2023-03-01T21:27:19;27;22;16
68713;PMS7003;55690;51.566;19.198;2023-03-01T21:31:26;34;22;17
68713;PMS7003;55690;51.566;19.198;2023-03-01T21:35:33;26;21;17
68713;PMS7003;55690;51.566;19.198;2023-03-01T21:39:38;29;19;12
68713;PMS7003;55690;51.566;19.198;2023-03-01T21:43:45;21;15;10
68713;PMS7003;55690;51.566;19.198;2023-03-01T21:47:50;30;23;14
68713;PMS7003;55690;51.566;19.198;2023-03-01T21:51:56;25;15;9
68713;PMS7003;55690;51.566;19.198;2023-03-01T21:56:04;25;24;15
68713;PMS7003;55690;51.566;19.198;2023-03-01T22:00:09;31;28;19
68713;PMS7003;55690;51.566;19.198;2023-03-01T22:04:15;31;26;19
68713;PMS7003;55690;51.566;19.198;2023-03-01T22:08:21;32;21;16
68713;PMS7003;55690;51.566;19.198;2023-03-01T22:12:28;38;18;9
68713;PMS7003;55690;51.566;19.198;2023-03-01T22:16:34;34;24;17
68713;PMS7003;55690;51.566;19.198;2023-03-01T22:20:40;40;27;18
68713;PMS7003;55690;51.566;19.198;2023-03-01T22:24:46;29;23;15
68713;PMS7003;55690;51.566;19.198;2023-03-01T22:28:53;43;30;19
68713;PMS7003;55690;51.566;19.198;2023-03-01T22:32:59;31;26;18
68713;PMS7003;55690;51.566;19.198;2023-03-01T22:37:05;26;21;14
68713;PMS7003;55690;51.566;19.198;2023-03-01T22:41:11;14;13;8
68713;PMS7003;55690;51.566;19.198;2023-03-01T22:45:17;40;24;17
68713;PMS7003;55690;51.566;19.198;2023-03-01T22:49:23;37;26;15
68713;PMS7003;55690;51.566;19.198;2023-03-01T22:53:29;20;20;15
68713;PMS7003;55690;51.566;19.198;2023-03-01T22:57:36;35;22;16
68713;PMS7003;55690;51.566;19.198;2023-03-01T23:01:42;27;18;11
68713;PMS7003;55690;51.566;19.198;2023-03-01T23:05:48;40;26;17
68713;PMS7003;55690;51.566;19.198;2023-03-01T23:09:54;28;24;17
68713;PMS7003;55690;51.566;19.198;2023-03-01T23:14:01;41;31;19
68713;PMS7003;55690;51.566;19.198;2023-03-01T23:18:07;32;23;16
68713;PMS7003;55690;51.566;19.198;2023-03-01T23:22:13;35;27;19
68713;PMS7003;55690;51.566;19.198;2023-03-01T23:26:19;36;32;18
68713;PMS7003;55690;51.566;19.198;2023-03-01T23:30:25;34;23;13
68713;PMS7003;55690;51.566;19.198;2023-03-01T23:34:31;39;24;16
68713;PMS7003;55690;51.566;19.198;2023-03-01T23:38:37;22;17;11
68713;PMS7003;55690;51.566;19.198;2023-03-01T23:42:44;18;17;14
68713;PMS7003;55690;51.566;19.198;2023-03-01T23:46:50;38;23;16
68713;PMS7003;55690;51.566;19.198;2023-03-01T23:51:01;35;24;16
68713;PMS7003;55690;51.566;19.198;2023-03-01T23:55:06;39;29;20
68713;PMS7003;55690;51.566;19.198;2023-03-01T23:59:15;28;18;11
